Time;durP1;ratioP1;P1;durP2;ratioP2;P2;SDS_P1;SDS_P2;PMS_P1;PMS_P2;Temp;Humidity;BMP_temperature;BMP_pressure;BME280_temperature;BME280_humidity;BME280_pressure;Samples;Min_cycle;Max_cycle;Signal;HPM_P1;HPM_P2
2023/12/15 00:00:29;;;;;;;12.43;10.67;;;;;;;5.39;100.00;102719.66;5090008;28;20052;-37
2023/12/15 00:02:55;;;;;;;13.60;9.90;;;;;;;5.42;100.00;102731.94;5089809;28;20027;-37
2023/12/15 00:05:21;;;;;;;16.05;12.30;;;;;;;5.35;100.00;102712.91;5123449;28;20369;-37
2023/12/15 00:07:46;;;;;;;13.30;11.00;;;;;;;5.40;100.00;102729.38;5081584;28;20025;-37
2023/12/15 00:10:12;;;;;;;14.23;11.23;;;;;;;5.40;100.00;102734.75;5076298;28;20025;-37
2023/12/15 00:12:37;;;;;;;14.07;12.05;;;;;;;5.40;100.00;102740.13;5076707;28;20058;-37
2023/12/15 00:15:03;;;;;;;17.43;13.17;;;;;;;5.38;100.00;102747.50;5076359;28;20028;-36
2023/12/15 00:17:28;;;;;;;14.80;12.23;;;;;;;5.39;100.00;102751.00;5076681;28;20040;-36
2023/12/15 00:19:53;;;;;;;16.53;12.87;;;;;;;5.39;100.00;102759.91;5076100;28;20032;-37
2023/12/15 00:22:19;;;;;;;17.57;12.43;;;;;;;5.40;100.00;102756.22;5076626;28;20028;-37
2023/12/15 00:24:45;;;;;;;16.93;12.37;;;;;;;5.40;100.00;102761.59;5075708;28;20028;-37
2023/12/15 00:27:10;;;;;;;;;;;;;;;5.41;100.00;102757.91;5076071;28;20024;-37
2023/12/15 00:29:36;;;;;;;18.35;13.50;;;;;;;5.38;100.00;102752.84;5075870;28;19908;-37
2023/12/15 00:32:02;;;;;;;13.83;12.27;;;;;;;5.41;100.00;102760.59;5075939;28;20031;-37
2023/12/15 00:34:27;;;;;;;18.20;13.32;;;;;;;5.38;100.00;102749.34;5075746;28;20032;-37
2023/12/15 00:36:52;;;;;;;15.40;13.10;;;;;;;5.39;100.00;102753.69;5075489;28;20407;-36
2023/12/15 00:39:18;;;;;;;16.63;13.43;;;;;;;5.39;100.00;102761.75;5075982;28;20427;-36
2023/12/15 00:41:43;;;;;;;16.57;13.63;;;;;;;5.40;100.00;102766.09;5076227;28;20131;-36
2023/12/15 00:44:08;;;;;;;18.70;13.83;;;;;;;5.42;100.00;102769.50;5076176;28;20025;-37
2023/12/15 00:46:33;;;;;;;18.73;14.83;;;;;;;5.42;100.00;102764.97;5076430;28;20055;-37
2023/12/15 00:48:59;;;;;;;22.80;14.80;;;;;;;5.35;100.00;102753.13;5075800;28;20024;-37
2023/12/15 00:51:26;;;;;;;18.93;14.57;;;;;;;5.43;100.00;102763.97;5076008;28;20025;-37
2023/12/15 00:53:51;;;;;;;18.33;14.55;;;;;;;5.45;100.00;102755.78;5075646;28;20029;-37
2023/12/15 00:56:17;;;;;;;19.67;15.80;;;;;;;5.43;100.00;102772.03;5075268;28;20049;-37
2023/12/15 00:58:42;;;;;;;19.13;15.17;;;;;;;5.47;100.00;102774.41;5075308;28;20027;-35
2023/12/15 01:01:07;;;;;;;18.47;14.67;;;;;;;5.48;100.00;102771.56;5075053;28;20477;-35
2023/12/15 01:03:33;;;;;;;23.40;16.40;;;;;;;5.47;100.00;102779.78;5075213;28;20082;-35
2023/12/15 01:05:58;;;;;;;25.13;16.37;;;;;;;5.47;100.00;102777.09;5075493;28;20413;-35
2023/12/15 01:08:24;;;;;;;20.27;15.83;;;;;;;5.47;100.00;102783.31;5075415;28;20040;-37
2023/12/15 01:10:50;;;;;;;24.00;17.65;;;;;;;5.49;100.00;102780.47;5075370;28;20024;-35
2023/12/15 01:13:15;;;;;;;20.67;16.60;;;;;;;5.49;100.00;102789.38;5075199;28;20028;-35
2023/12/15 01:15:40;;;;;;;27.45;17.38;;;;;;;5.51;100.00;102786.53;5075162;28;20035;-35
2023/12/15 01:18:06;;;;;;;21.30;15.57;;;;;;;5.53;100.00;102780.03;5074527;28;20017;-35
2023/12/15 01:20:32;;;;;;;22.52;17.95;;;;;;;5.53;100.00;102793.44;5073772;28;20085;-36
2023/12/15 01:22:57;;;;;;;23.20;17.23;;;;;;;5.53;100.00;102793.44;5075340;28;20025;-36
2023/12/15 01:25:23;;;;;;;26.92;19.13;;;;;;;5.54;100.00;102794.28;5075372;28;20048;-36
2023/12/15 01:27:48;;;;;;;23.87;17.10;;;;;;;5.57;100.00;102810.09;5075262;28;20028;-36
2023/12/15 01:30:13;;;;;;;22.30;17.03;;;;;;;5.57;100.00;102810.09;5073496;28;20482;-36
2023/12/15 01:32:39;;;;;;;22.40;17.95;;;;;;;5.57;100.00;102813.63;5074953;28;20063;-36
2023/12/15 01:35:05;;;;;;;24.48;18.45;;;;;;;5.56;100.00;102819.13;5074512;28;20032;-36
2023/12/15 01:37:31;;;;;;;22.80;17.85;;;;;;;5.56;100.00;102820.00;5074557;28;20372;-36
2023/12/15 01:39:56;;;;;;;25.90;18.73;;;;;;;5.56;100.00;102817.31;5074745;28;20040;-36
2023/12/15 01:42:21;;;;;;;24.03;18.37;;;;;;;5.49;100.00;102804.63;5075079;28;20115;-36
2023/12/15 01:44:47;;;;;;;24.27;18.57;;;;;;;5.59;100.00;102818.81;5074170;28;20047;-36
2023/12/15 01:47:14;;;;;;;26.50;18.67;;;;;;;5.59;100.00;102813.47;5074648;28;20078;-36
2023/12/15 01:49:40;;;;;;;26.77;18.38;;;;;;;5.60;100.00;102821.34;5073926;28;20028;-36
2023/12/15 01:52:06;;;;;;;25.90;18.58;;;;;;;5.60;100.00;102820.50;5074320;28;20024;-36
2023/12/15 01:54:31;;;;;;;23.45;19.25;;;;;;;5.61;100.00;102822.19;5074263;28;20443;-36
2023/12/15 01:56:57;;;;;;;24.55;18.40;;;;;;;5.58;100.00;102820.66;5074743;28;20052;-36
2023/12/15 01:59:22;;;;;;;25.13;18.40;;;;;;;5.61;100.00;102832.94;5074366;28;20487;-36
2023/12/15 02:01:47;;;;;;;24.83;18.80;;;;;;;5.62;100.00;102823.91;5074348;28;20457;-36
2023/12/15 02:04:12;;;;;;;27.27;19.90;;;;;;;5.63;100.00;102836.31;5073763;28;20130;-36
2023/12/15 02:06:38;;;;;;;26.27;19.57;;;;;;;5.65;100.00;102843.22;5073711;28;20033;-36
2023/12/15 02:09:03;;;;;;;24.63;19.73;;;;;;;5.64;100.00;102838.00;5073935;28;20043;-36
2023/12/15 02:11:29;;;;;;;26.73;20.47;;;;;;;5.61;100.00;102835.63;5073947;28;20028;-36
2023/12/15 02:13:54;;;;;;;29.03;19.63;;;;;;;5.62;100.00;102829.28;5074417;28;20313;-36
2023/12/15 02:16:19;;;;;;;24.83;19.90;;;;;;;5.65;100.00;102835.16;5074121;28;20064;-36
2023/12/15 02:18:45;;;;;;;25.70;20.00;;;;;;;5.64;100.00;102833.47;5073522;28;20035;-36
2023/12/15 02:21:10;;;;;;;26.17;20.53;;;;;;;5.69;100.00;102843.78;5073772;28;20556;-36
2023/12/15 02:23:37;;;;;;;27.77;20.67;;;;;;;5.70;100.00;102845.44;5074311;28;20032;-36
2023/12/15 02:26:03;;;;;;;28.13;20.45;;;;;;;5.69;100.00;102843.78;5073424;28;20037;-36
2023/12/15 02:28:28;;;;;;;25.20;20.48;;;;;;;5.64;100.00;102846.06;5073602;28;20070;-36
2023/12/15 02:30:53;;;;;;;28.57;20.63;;;;;;;5.64;100.00;102843.38;5073381;28;20119;-36
2023/12/15 02:33:19;;;;;;;26.90;20.10;;;;;;;5.65;100.00;102853.13;5072362;28;20758;-36
2023/12/15 02:35:47;;;;;;;27.50;21.37;;;;;;;5.74;100.00;102879.06;5073777;28;20515;-36
2023/12/15 02:38:17;;;;;;;27.00;19.63;;;;;;;5.71;100.00;102862.41;5073549;28;20028;-37
2023/12/15 02:40:44;;;;;;;28.08;21.67;;;;;;;5.75;100.00;102882.59;5074121;28;20103;-36
2023/12/15 02:43:12;;;;;;;27.60;21.80;;;;;;;5.75;100.00;102879.91;5073989;28;20024;-36
2023/12/15 02:45:38;;;;;;;31.08;21.60;;;;;;;5.68;100.00;102874.31;5073222;28;20111;-36
2023/12/15 02:48:03;;;;;;;34.30;22.93;;;;;;;5.78;100.00;102887.66;5073448;28;20595;-36
2023/12/15 02:50:29;;;;;;;30.05;21.23;;;;;;;5.78;100.00;102885.00;5073507;28;20031;-36
2023/12/15 02:52:54;;;;;;;30.43;23.20;;;;;;;5.79;100.00;102884.81;5074197;28;20107;-36
2023/12/15 02:55:20;;;;;;;31.70;22.93;;;;;;;5.75;100.00;102888.81;5073558;28;20271;-35
2023/12/15 02:57:45;;;;;;;34.00;23.47;;;;;;;5.80;100.00;102899.94;5073387;28;20146;-36
2023/12/15 03:00:11;;;;;;;33.03;23.13;;;;;;;5.80;100.00;102907.16;5074182;28;20082;-36
2023/12/15 03:02:38;;;;;;;33.92;23.25;;;;;;;5.81;100.00;102908.88;5073852;28;20270;-36
2023/12/15 03:05:04;;;;;;;33.58;23.65;;;;;;;5.82;100.00;102907.88;5073022;28;20174;-36
2023/12/15 03:07:29;;;;;;;30.65;23.08;;;;;;;5.82;100.00;102905.19;5073736;28;20107;-35
2023/12/15 03:09:55;;;;;;;47.43;25.03;;;;;;;5.83;100.00;102912.22;5073173;28;20520;-36
2023/12/15 03:12:20;;;;;;;31.65;23.30;;;;;;;5.80;100.00;102905.31;5072907;28;20414;-36
2023/12/15 03:14:45;;;;;;;35.83;25.43;;;;;;;5.85;100.00;102903.00;5073237;28;20063;-36
2023/12/15 03:17:11;;;;;;;34.23;24.27;;;;;;;5.85;100.00;102913.75;5073364;28;20056;-36
2023/12/15 03:19:39;;;;;;;34.43;25.17;;;;;;;5.80;100.00;102910.69;5073125;28;20063;-36
2023/12/15 03:22:04;;;;;;;38.30;25.35;;;;;;;5.79;100.00;102909.00;5073043;28;20067;-36
2023/12/15 03:24:29;;;;;;;40.53;25.57;;;;;;;5.87;100.00;102930.59;5073171;28;20056;-35
2023/12/15 03:26:55;;;;;;;35.97;24.67;;;;;;;5.89;100.00;102927.75;5073086;28;20131;-36
2023/12/15 03:29:21;;;;;;;37.80;25.50;;;;;;;5.83;100.00;102929.19;5072820;28;20028;-36
2023/12/15 03:31:46;;;;;;;38.53;25.48;;;;;;;5.89;100.00;102942.00;5073311;28;20025;-37
2023/12/15 03:34:11;;;;;;;40.47;26.13;;;;;;;5.87;100.00;102933.25;5072755;28;20165;-36
2023/12/15 03:36:38;;;;;;;36.47;25.47;;;;;;;5.85;100.00;102937.91;5072874;28;20032;-36
2023/12/15 03:39:05;;;;;;;39.22;26.52;;;;;;;5.92;100.00;102955.19;5072935;28;20059;-36
2023/12/15 03:41:31;;;;;;;40.40;25.35;;;;;;;5.90;100.00;102946.41;5073742;28;20491;-36
2023/12/15 03:43:56;;;;;;;35.47;26.38;;;;;;;5.94;100.00;102963.06;5076423;28;20025;-36
2023/12/15 03:46:22;;;;;;;37.13;25.97;;;;;;;5.90;100.00;102948.22;5077258;28;20434;-36
2023/12/15 03:48:47;;;;;;;37.67;27.20;;;;;;;5.97;100.00;102968.16;5077167;28;20372;-36
2023/12/15 03:51:12;;;;;;;36.43;24.17;;;;;;;5.97;100.00;102964.63;5077159;28;20074;-36
2023/12/15 03:53:38;;;;;;;38.73;25.87;;;;;;;5.98;100.00;102969.84;5077060;28;20043;-37
2023/12/15 03:56:05;;;;;;;40.23;25.70;;;;;;;5.86;100.00;102950.38;5076535;28;20131;-36
2023/12/15 03:58:30;;;;;;;40.15;26.88;;;;;;;5.95;100.00;102970.13;5076661;28;20538;-36
2023/12/15 04:00:56;;;;;;;39.07;26.73;;;;;;;5.99;100.00;102982.28;5076707;28;20067;-36
2023/12/15 04:03:22;;;;;;;39.65;25.77;;;;;;;6.00;100.00;102980.44;5076908;28;20021;-36
2023/12/15 04:05:47;;;;;;;43.42;26.67;;;;;;;5.93;100.00;102967.59;5076553;28;20433;-36
2023/12/15 04:08:13;;;;;;;38.90;26.38;;;;;;;5.92;100.00;102965.06;5076789;28;20035;-36
2023/12/15 04:10:39;;;;;;;41.22;25.58;;;;;;;5.94;100.00;102968.44;5077035;28;20031;-41
2023/12/15 04:13:05;;;;;;;42.78;26.15;;;;;;;6.01;100.00;102979.47;5076661;28;20028;-36
2023/12/15 04:15:30;;;;;;;36.58;24.88;;;;;;;6.01;100.00;102974.09;5076629;28;20369;-36
2023/12/15 04:17:55;;;;;;;40.17;24.97;;;;;;;5.95;100.00;102962.06;5076137;28;20117;-36
2023/12/15 04:20:21;;;;;;;36.53;25.17;;;;;;;6.04;100.00;102985.34;5076655;28;20052;-36
2023/12/15 04:22:46;;;;;;;39.90;25.70;;;;;;;6.05;100.00;102991.56;5076530;28;20029;-36
2023/12/15 04:25:11;;;;;;;43.13;27.03;;;;;;;6.00;100.00;102983.97;5075997;28;20484;-36
2023/12/15 04:27:37;;;;;;;38.50;24.93;;;;;;;6.06;100.00;102993.28;5076716;28;20021;-36
2023/12/15 04:30:03;;;;;;;41.80;26.77;;;;;;;6.07;100.00;103000.34;5076344;28;20031;-36
2023/12/15 04:32:28;;;;;;;45.83;27.13;;;;;;;6.09;100.00;103006.41;5075829;28;20085;-36
2023/12/15 04:34:53;;;;;;;45.43;26.40;;;;;;;6.05;100.00;102996.94;5075714;28;20040;-36
2023/12/15 04:37:19;;;;;;;38.63;25.83;;;;;;;5.85;100.00;102972.81;5075980;28;20027;-37
2023/12/15 04:39:46;;;;;;;48.63;27.37;;;;;;;6.06;100.00;103004.03;5075697;28;20468;-36
2023/12/15 04:42:12;;;;;;;45.88;26.70;;;;;;;6.10;100.00;103011.66;5075666;28;20034;-36
2023/12/15 04:44:37;;;;;;;44.50;27.27;;;;;;;6.10;100.00;103008.97;5075603;28;20089;-36
2023/12/15 04:47:02;;;;;;;42.97;26.27;;;;;;;6.12;100.00;103006.13;5075578;28;20032;-37
2023/12/15 04:49:28;;;;;;;45.70;26.75;;;;;;;6.12;100.00;103009.66;5075180;28;20028;-36
2023/12/15 04:51:53;;;;;;;41.30;26.83;;;;;;;6.04;100.00;102996.09;5075187;28;20036;-35
2023/12/15 04:54:18;;;;;;;43.70;26.63;;;;;;;6.07;100.00;103003.03;5075316;28;20024;-36
2023/12/15 04:56:44;;;;;;;47.70;27.67;;;;;;;6.13;100.00;103010.50;5077689;28;20052;-37
2023/12/15 04:59:10;;;;;;;46.53;27.05;;;;;;;6.13;100.00;103021.22;5075010;28;20137;-37
2023/12/15 05:01:35;;;;;;;46.67;27.20;;;;;;;6.13;100.00;103015.88;5075346;28;20024;-37
2023/12/15 05:04:01;;;;;;;46.37;26.87;;;;;;;6.14;100.00;103017.53;5074985;28;20025;-37
2023/12/15 05:06:27;;;;;;;51.10;28.98;;;;;;;6.15;100.00;103016.56;5074923;28;20032;-37
2023/12/15 05:08:53;;;;;;;46.42;27.17;;;;;;;6.15;100.00;103025.47;5075116;28;20082;-36
2023/12/15 05:11:19;;;;;;;53.92;28.40;;;;;;;6.11;100.00;103013.34;5075104;28;20437;-35
2023/12/15 05:13:44;;;;;;;53.28;28.17;;;;;;;6.09;100.00;103014.47;5075221;28;20059;-37
2023/12/15 05:16:10;;;;;;;49.13;27.80;;;;;;;6.16;100.00;103020.94;5074588;28;20036;-36
2023/12/15 05:18:35;;;;;;;49.70;27.77;;;;;;;6.18;100.00;103032.38;5074645;28;20029;-35
2023/12/15 05:21:01;;;;;;;47.70;27.20;;;;;;;6.19;100.00;103034.06;5074885;28;20036;-35
2023/12/15 05:23:26;;;;;;;45.28;27.55;;;;;;;6.13;100.00;103026.59;5075022;28;20029;-35
2023/12/15 05:25:52;;;;;;;52.50;29.83;;;;;;;6.19;100.00;103037.59;5075602;28;20039;-36
2023/12/15 05:28:17;;;;;;;48.30;27.52;;;;;;;6.21;100.00;103042.00;5074704;28;20457;-35
2023/12/15 05:30:43;;;;;;;45.83;27.67;;;;;;;6.14;100.00;103034.50;5073432;28;20029;-35
2023/12/15 05:33:08;;;;;;;49.00;29.55;;;;;;;6.21;100.00;103050.91;5074277;28;20036;-35
2023/12/15 05:35:34;;;;;;;53.03;28.88;;;;;;;6.16;100.00;103045.13;5074239;28;20028;-35
2023/12/15 05:37:59;;;;;;;47.27;27.93;;;;;;;6.24;100.00;103064.03;5074420;28;20070;-35
2023/12/15 05:40:25;;;;;;;50.38;28.23;;;;;;;6.17;100.00;103071.84;5075272;28;20021;-35
2023/12/15 05:42:50;;;;;;;48.43;27.80;;;;;;;6.05;100.00;103046.16;5074746;28;20028;-35
2023/12/15 05:45:16;;;;;;;45.80;27.70;;;;;;;6.27;100.00;103089.75;5075179;28;20614;-35
2023/12/15 05:47:41;;;;;;;43.53;25.98;;;;;;;6.26;100.00;103091.59;5074869;28;20032;-36
2023/12/15 05:50:07;;;;;;;47.23;27.80;;;;;;;6.27;100.00;103090.59;5074288;28;20032;-36
2023/12/15 05:52:32;;;;;;;47.30;27.63;;;;;;;6.28;100.00;103092.28;5074520;28;20028;-36
2023/12/15 05:54:57;;;;;;;44.33;28.63;;;;;;;6.31;100.00;103100.06;5074736;28;20354;-36
2023/12/15 05:57:23;;;;;;;47.80;28.87;;;;;;;6.32;100.00;103095.53;5075352;28;20044;-36
2023/12/15 05:59:48;;;;;;;50.40;29.40;;;;;;;6.32;100.00;103091.00;5074863;28;20025;-36
2023/12/15 06:02:14;;;;;;;52.80;29.03;;;;;;;6.32;100.00;103091.00;5074616;28;20037;-36
2023/12/15 06:04:39;;;;;;;50.28;29.08;;;;;;;6.34;100.00;103089.00;5072273;28;20028;-36
2023/12/15 06:07:04;;;;;;;47.77;30.27;;;;;;;6.34;100.00;103072.03;5073520;28;20112;-36
2023/12/15 06:09:30;;;;;;;53.57;29.13;;;;;;;6.30;100.00;103070.66;5072358;28;20032;-36
2023/12/15 06:11:55;;;;;;;57.77;30.43;;;;;;;6.36;100.00;103081.66;5073863;28;20024;-36
2023/12/15 06:14:21;;;;;;;50.90;30.27;;;;;;;6.36;100.00;103084.34;5073539;28;20025;-36
2023/12/15 06:16:47;;;;;;;48.22;29.77;;;;;;;6.37;100.00;103090.56;5073667;28;20029;-36
2023/12/15 06:19:13;;;;;;;55.70;31.27;;;;;;;6.32;100.00;103082.94;5073185;28;20389;-36
2023/12/15 06:21:39;;;;;;;50.95;30.08;;;;;;;6.38;100.00;103094.94;5073735;28;20071;-36
2023/12/15 06:24:05;;;;;;;54.83;30.90;;;;;;;6.23;100.00;103066.88;5073461;28;20056;-36
2023/12/15 06:26:30;;;;;;;50.35;30.50;;;;;;;6.37;100.00;103096.78;5073370;28;20056;-36
2023/12/15 06:28:55;;;;;;;55.87;31.67;;;;;;;6.38;100.00;103101.16;5073092;28;20107;-36
2023/12/15 06:31:21;;;;;;;49.53;28.53;;;;;;;6.34;100.00;103097.06;5073863;28;20453;-36
2023/12/15 06:33:46;;;;;;;46.30;29.58;;;;;;;6.34;100.00;103105.13;5073560;28;20099;-36
2023/12/15 06:36:12;;;;;;;58.20;32.53;;;;;;;6.39;100.00;103108.25;5073158;28;20031;-36
2023/12/15 06:38:42;;;;;;;54.78;31.25;;;;;;;6.40;100.00;103118.00;5073211;28;20032;-36
2023/12/15 06:41:12;;;;;;;49.08;30.48;;;;;;;6.42;100.00;103118.69;5073515;28;20029;-37
2023/12/15 06:43:39;;;;;;;53.10;29.88;;;;;;;6.44;100.00;103121.22;5073195;28;20021;-36
2023/12/15 06:46:05;;;;;;;53.15;30.92;;;;;;;6.42;100.00;103118.69;5073955;28;20110;-36
2023/12/15 06:48:30;;;;;;;50.15;30.73;;;;;;;6.38;100.00;103119.97;5072728;28;20036;-36
2023/12/15 06:50:56;;;;;;;51.07;30.87;;;;;;;6.46;100.00;103121.94;5073122;28;20032;-36
2023/12/15 06:53:21;;;;;;;49.50;30.77;;;;;;;6.39;100.00;103110.94;5073090;28;20032;-36
2023/12/15 06:55:46;;;;;;;48.40;31.07;;;;;;;6.47;100.00;103120.09;5072902;28;20106;-37
2023/12/15 06:58:12;;;;;;;53.87;31.47;;;;;;;6.45;100.00;103131.00;5072853;28;20031;-36
2023/12/15 07:00:39;;;;;;;47.70;31.63;;;;;;;6.47;100.00;103136.22;5073355;28;20021;-36
2023/12/15 07:03:04;;;;;;;53.80;30.40;;;;;;;6.45;100.00;103139.91;5072997;28;20058;-36
2023/12/15 07:05:30;;;;;;;51.50;30.83;;;;;;;6.48;100.00;103149.50;5073059;28;20465;-37
2023/12/15 07:07:55;;;;;;;51.03;31.97;;;;;;;6.42;100.00;103145.56;5073797;28;20029;-37
2023/12/15 07:10:21;;;;;;;52.05;30.45;;;;;;;6.49;100.00;103161.09;5073310;28;20028;-37
2023/12/15 07:12:46;;;;;;;49.77;31.17;;;;;;;6.48;100.00;103165.63;5073274;28;20461;-37
2023/12/15 07:15:12;;;;;;;56.42;32.30;;;;;;;6.50;100.00;103168.19;5072855;28;20058;-37
2023/12/15 07:17:37;;;;;;;51.23;31.60;;;;;;;6.50;100.00;103160.97;5074504;28;20032;-37
2023/12/15 07:20:04;;;;;;;52.50;30.33;;;;;;;6.52;100.00;103166.19;5076656;28;20035;-37
2023/12/15 07:22:29;;;;;;;51.05;32.20;;;;;;;6.49;100.00;103161.09;5076581;28;20052;-37
2023/12/15 07:24:55;;;;;;;50.53;31.33;;;;;;;6.50;100.00;103166.34;5076748;28;20063;-37
2023/12/15 07:27:20;;;;;;;56.67;32.47;;;;;;;6.51;100.00;103180.63;5077340;28;20402;-37
2023/12/15 07:29:45;;;;;;;49.93;29.90;;;;;;;6.39;100.00;103159.31;5076745;28;20116;-37
2023/12/15 07:32:11;;;;;;;52.50;31.87;;;;;;;6.49;100.00;103178.09;5076777;28;20050;-37
2023/12/15 07:34:36;;;;;;;50.67;29.00;;;;;;;6.51;100.00;103173.41;5076573;28;20033;-37
2023/12/15 07:37:01;;;;;;;50.43;31.07;;;;;;;6.54;100.00;103180.31;5077587;28;20025;-37
2023/12/15 07:39:27;;;;;;;51.55;30.73;;;;;;;6.48;100.00;103179.06;5077012;28;20111;-37
2023/12/15 07:41:52;;;;;;;49.50;30.37;;;;;;;6.48;100.00;103188.97;5077030;28;20036;-37
2023/12/15 07:44:18;;;;;;;51.63;29.70;;;;;;;6.49;100.00;103187.97;5076666;28;20028;-37
2023/12/15 07:46:43;;;;;;;49.83;30.80;;;;;;;6.54;100.00;103193.75;5076749;28;20056;-37
2023/12/15 07:49:10;;;;;;;47.30;30.90;;;;;;;6.41;100.00;103170.75;5076507;28;20302;-37
2023/12/15 07:51:35;;;;;;;50.70;30.67;;;;;;;6.56;100.00;103197.16;5076881;28;20090;-37
2023/12/15 07:54:01;;;;;;;53.65;31.70;;;;;;;6.56;100.00;103213.28;5076429;28;20103;-37
2023/12/15 07:56:28;;;;;;;53.57;31.43;;;;;;;6.56;100.00;103210.59;5076779;28;20072;-37
2023/12/15 07:58:56;;;;;;;48.88;30.30;;;;;;;6.56;100.00;103224.88;5076401;28;20025;-37
2023/12/15 08:01:23;;;;;;;47.92;29.42;;;;;;;6.59;100.00;103223.75;5076105;28;20085;-37
2023/12/15 08:03:50;;;;;;;46.75;30.15;;;;;;;6.59;100.00;103227.28;5076331;28;20028;-37
2023/12/15 08:06:16;;;;;;;50.22;29.90;;;;;;;6.60;100.00;103225.44;5076059;28;20051;-37
2023/12/15 08:08:43;;;;;;;52.45;30.42;;;;;;;6.58;100.00;103217.50;5075973;28;20446;-36
2023/12/15 08:11:12;;;;;;;46.58;30.40;;;;;;;6.63;100.00;103227.81;5076203;28;20031;-36
2023/12/15 08:13:38;;;;;;;48.28;30.50;;;;;;;6.59;100.00;103221.91;5076627;28;20021;-36
2023/12/15 08:16:05;;;;;;;49.60;30.17;;;;;;;6.65;100.00;103240.13;5076373;28;20036;-36
2023/12/15 08:18:31;;;;;;;50.80;30.60;;;;;;;6.67;100.00;103248.03;5075710;28;20024;-36
2023/12/15 08:20:57;;;;;;;53.83;31.40;;;;;;;6.61;100.00;103240.56;5075777;28;20027;-37
2023/12/15 08:23:23;;;;;;;49.33;30.75;;;;;;;6.65;100.00;103260.81;5075983;28;20127;-37
2023/12/15 08:25:48;;;;;;;45.23;29.20;;;;;;;6.67;100.00;103251.56;5076255;28;20068;-37
2023/12/15 08:28:14;;;;;;;45.92;27.80;;;;;;;6.70;100.00;103258.53;5075475;28;20384;-36
2023/12/15 08:30:39;;;;;;;54.20;30.00;;;;;;;6.72;100.00;103272.66;5076248;28;20415;-36
2023/12/15 08:33:05;;;;;;;44.63;29.65;;;;;;;6.73;100.00;103268.97;5075575;28;20395;-35
2023/12/15 08:35:31;;;;;;;48.20;28.33;;;;;;;6.74;100.00;103285.97;5074887;28;20384;-36
2023/12/15 08:37:57;;;;;;;45.53;27.60;;;;;;;6.76;100.00;103295.56;5075699;28;20078;-36
2023/12/15 08:40:23;;;;;;;45.78;29.33;;;;;;;6.76;100.00;103290.19;5075727;28;20037;-36
2023/12/15 08:42:49;;;;;;;51.55;30.65;;;;;;;6.78;100.00;103301.63;5076510;28;20056;-37
2023/12/15 08:45:14;;;;;;;43.47;28.42;;;;;;;6.78;100.00;103309.72;5075338;28;20021;-36
2023/12/15 08:47:39;;;;;;;43.55;28.40;;;;;;;6.82;100.00;103308.44;5075942;28;20033;-36
2023/12/15 08:50:05;;;;;;;44.17;27.33;;;;;;;6.72;100.00;103295.00;5076063;28;20063;-37
2023/12/15 08:52:30;;;;;;;44.65;29.63;;;;;;;6.83;100.00;103306.59;5075893;28;20416;-37
2023/12/15 08:54:56;;;;;;;46.40;28.87;;;;;;;6.80;100.00;103305.06;5074220;28;20388;-37
2023/12/15 08:57:22;;;;;;;43.85;28.40;;;;;;;6.90;100.00;103319.31;5075241;28;20044;-37
2023/12/15 08:59:47;;;;;;;47.13;28.10;;;;;;;6.90;100.00;103322.00;5075560;28;20028;-36
2023/12/15 09:02:13;;;;;;;47.13;28.17;;;;;;;6.93;100.00;103318.19;5075569;28;20059;-36
2023/12/15 09:04:38;;;;;;;45.03;27.00;;;;;;;6.94;100.00;103318.03;5075239;28;20604;-36
2023/12/15 09:07:04;;;;;;;41.97;28.48;;;;;;;6.89;100.00;103308.72;5075807;28;20297;-37
2023/12/15 09:09:29;;;;;;;47.47;28.92;;;;;;;6.79;100.00;103286.38;5075105;28;20353;-37
2023/12/15 09:11:54;;;;;;;39.33;26.63;;;;;;;7.00;100.00;103323.81;5075686;28;20029;-37
2023/12/15 09:14:21;;;;;;;46.42;28.17;;;;;;;6.99;100.00;103319.44;5075000;28;20032;-37
2023/12/15 09:16:47;;;;;;;45.67;27.25;;;;;;;6.97;100.00;103316.88;5074603;28;20070;-36
2023/12/15 09:19:13;;;;;;;45.45;28.08;;;;;;;7.03;100.00;103323.50;5075240;28;20037;-36
2023/12/15 09:21:39;;;;;;;46.03;27.70;;;;;;;7.03;100.00;103336.97;5074930;28;20115;-37
2023/12/15 09:24:04;;;;;;;43.40;26.58;;;;;;;7.06;100.00;103339.38;5074806;28;20108;-38
2023/12/15 09:26:30;;;;;;;44.53;27.47;;;;;;;7.07;100.00;103349.13;5075581;28;20376;-36
2023/12/15 09:28:55;;;;;;;45.70;28.10;;;;;;;7.09;100.00;103358.75;5075199;28;20059;-38
2023/12/15 09:31:21;;;;;;;47.80;27.70;;;;;;;7.04;100.00;103346.75;5075478;28;20044;-35
2023/12/15 09:33:46;;;;;;;44.28;27.70;;;;;;;7.10;100.00;103356.91;5074640;28;20025;-37
2023/12/15 09:36:11;;;;;;;47.43;27.67;;;;;;;7.12;100.00;103373.75;5074520;28;20427;-36
2023/12/15 09:38:37;;;;;;;44.55;28.42;;;;;;;7.12;100.00;103373.75;5074800;28;20025;-38
2023/12/15 09:41:03;;;;;;;42.65;26.92;;;;;;;7.12;100.00;103379.13;5073733;28;20028;-35
2023/12/15 09:43:29;;;;;;;42.00;26.70;;;;;;;7.03;100.00;103367.44;5074158;28;20549;-36
2023/12/15 09:45:57;;;;;;;40.90;27.23;;;;;;;7.12;100.00;103377.28;5074494;28;20111;-36
2023/12/15 09:48:25;;;;;;;38.42;24.02;;;;;;;7.18;100.00;103394.72;5074323;28;20332;-36
2023/12/15 09:50:54;;;;;;;42.83;27.17;;;;;;;7.18;100.00;103410.88;5075173;28;20032;-37
2023/12/15 09:53:20;;;;;;;38.35;25.60;;;;;;;7.19;100.00;103412.56;5074863;28;20028;-38
2023/12/15 09:55:46;;;;;;;;;;;;;;;7.27;100.00;103420.75;5074640;28;20077;-36
2023/12/15 09:58:12;;;;;;;37.53;24.05;;;;;;;7.21;100.00;103427.53;5074848;28;20011;-37
2023/12/15 10:00:38;;;;;;;34.60;23.90;;;;;;;7.24;100.00;103421.03;5075057;28;20120;-37
2023/12/15 10:03:04;;;;;;;35.53;22.90;;;;;;;7.27;100.00;103410.00;5073722;28;20055;-35
2023/12/15 10:05:30;;;;;;;39.25;24.75;;;;;;;7.31;100.00;103427.53;5073828;28;20032;-36
2023/12/15 10:07:55;;;;;;;;;;;;;;;7.37;100.00;103431.47;5074391;28;20118;-35
2023/12/15 10:10:23;;;;;;;39.00;23.83;;;;;;;7.29;100.00;103432.22;5074253;28;20368;-37
2023/12/15 10:12:49;;;;;;;33.83;22.17;;;;;;;7.31;100.00;103440.13;5073903;28;20028;-36
2023/12/15 10:15:14;;;;;;;42.30;25.10;;;;;;;7.32;100.00;103444.50;5073789;28;20471;-36
2023/12/15 10:17:40;;;;;;;33.60;23.88;;;;;;;7.19;100.00;103426.00;5074096;28;20029;-36
2023/12/15 10:20:10;;;;;;;38.72;23.48;;;;;;;7.30;100.00;103441.13;5073816;28;20070;-37
2023/12/15 10:22:38;;;;;;;33.53;22.05;;;;;;;7.26;100.00;103445.09;5073744;28;20443;-37
2023/12/15 10:25:24;;;;;;;40.55;23.15;;;;;;;7.36;100.00;103457.53;5073757;28;20039;-36
2023/12/15 10:27:50;;;;;;;32.17;20.73;;;;;;;7.36;100.00;103465.63;5073137;28;20044;-37
2023/12/15 10:30:17;;;;;;;38.40;21.63;;;;;;;7.38;100.00;103460.94;5073358;28;20029;-36
2023/12/15 10:32:44;;;;;;;32.08;21.75;;;;;;;7.34;100.00;103458.69;5073678;28;20020;-35
2023/12/15 10:35:10;;;;;;;32.83;21.92;;;;;;;7.41;100.00;103471.41;5073593;28;20024;-35
2023/12/15 10:37:36;;;;;;;35.10;20.85;;;;;;;7.36;100.00;103467.47;5073244;28;20024;-36
2023/12/15 10:40:03;;;;;;;36.67;20.98;;;;;;;7.43;100.00;103476.66;5073602;28;20021;-37
2023/12/15 10:42:30;;;;;;;32.30;21.40;;;;;;;7.36;100.00;103468.31;5073567;28;20024;-37
2023/12/15 10:44:57;;;;;;;37.40;20.58;;;;;;;7.45;100.00;103488.97;5073444;28;20108;-36
2023/12/15 10:47:24;;;;;;;28.70;20.48;;;;;;;7.45;100.00;103491.66;5073593;28;20362;-36
2023/12/15 10:49:52;;;;;;;33.25;20.63;;;;;;;7.47;100.00;103492.38;5073452;28;20380;-37
2023/12/15 10:52:21;;;;;;;33.25;20.52;;;;;;;7.47;100.00;103494.22;5073838;28;20036;-36
2023/12/15 10:54:49;;;;;;;32.50;20.73;;;;;;;7.43;100.00;103492.81;5073392;28;20025;-37
2023/12/15 10:57:14;;;;;;;27.00;19.42;;;;;;;7.49;100.00;103500.31;5074209;28;20059;-37
2023/12/15 10:59:40;;;;;;;30.20;19.60;;;;;;;7.49;100.00;103511.91;5073986;28;20025;-37
2023/12/15 11:02:09;;;;;;;27.35;18.67;;;;;;;7.51;100.00;103521.69;5073477;28;20100;-37